Time;durP1;ratioP1;P1;durP2;ratioP2;P2;SDS_P1;SDS_P2;PMS_P1;PMS_P2;Temp;Humidity;BMP_temperature;BMP_pressure;BME280_temperature;BME280_humidity;BME280_pressure;Samples;Min_cycle;Max_cycle;Signal;HPM_P1;HPM_P2
2024/02/23 00:01:25;;;;;;;8.20;5.20;;;;;;;8.44;78.26;96821.81;226741;1274;25466;-74
2024/02/23 00:06:28;;;;;;;8.20;5.40;;;;;;;8.45;78.37;96826.12;226844;1274;22640;-75
2024/02/23 00:11:32;;;;;;;10.60;6.20;;;;;;;8.47;78.20;96824.50;226896;1274;22590;-74
2024/02/23 00:16:39;;;;;;;9.10;6.10;;;;;;;8.48;78.17;96817.60;226891;1271;24001;-75
2024/02/23 00:21:42;;;;;;;8.90;6.50;;;;;;;8.48;78.10;96822.38;226890;1271;22550;-73
2024/02/23 00:26:44;;;;;;;10.20;6.80;;;;;;;8.45;78.35;96816.59;226922;1271;22539;-74
2024/02/23 00:31:47;;;;;;;9.10;6.60;;;;;;;8.43;78.53;96824.16;226919;1271;22636;-73
2024/02/23 00:36:49;;;;;;;9.60;6.30;;;;;;;8.40;78.66;96826.50;226928;1271;22603;-74
2024/02/23 00:41:50;;;;;;;9.00;5.50;;;;;;;8.37;78.70;96829.73;226697;1274;22551;-73
2024/02/23 00:46:52;;;;;;;9.80;6.30;;;;;;;8.35;78.81;96837.86;226893;1274;24228;-73
2024/02/23 00:51:55;;;;;;;9.10;6.50;;;;;;;8.32;78.33;96837.77;226895;1272;22559;-74
2024/02/23 00:56:57;;;;;;;10.20;7.10;;;;;;;8.29;78.80;96836.95;226849;1267;22539;-74
2024/02/23 01:01:59;;;;;;;6.80;5.00;;;;;;;8.29;78.96;96840.42;226753;1274;22549;-74
2024/02/23 01:07:01;;;;;;;7.30;4.60;;;;;;;8.32;79.04;96837.48;226828;1273;22539;-74
2024/02/23 01:12:03;;;;;;;5.50;4.00;;;;;;;8.35;78.97;96831.98;226804;1271;25840;-73
2024/02/23 01:17:05;;;;;;;5.30;3.90;;;;;;;8.38;78.87;96826.77;226818;1271;22575;-74
2024/02/23 01:22:07;;;;;;;4.60;4.00;;;;;;;8.39;78.71;96829.48;226742;1271;22527;-74
2024/02/23 01:27:09;;;;;;;5.40;4.30;;;;;;;8.39;79.09;96829.20;226731;1273;22546;-74
2024/02/23 01:32:11;;;;;;;6.40;4.40;;;;;;;8.38;78.99;96825.27;226734;1274;22543;-74
2024/02/23 01:37:13;;;;;;;6.60;4.50;;;;;;;8.36;79.12;96815.00;226839;1271;22541;-74
2024/02/23 01:42:15;;;;;;;8.10;5.30;;;;;;;8.33;79.26;96814.03;226876;1271;22587;-74
2024/02/23 01:47:18;;;;;;;8.40;5.80;;;;;;;8.28;79.62;96811.42;226824;1271;23281;-74
2024/02/23 01:52:22;;;;;;;9.80;5.50;;;;;;;8.23;79.54;96814.88;226799;1274;22555;-74
2024/02/23 01:57:28;;;;;;;8.10;5.90;;;;;;;8.16;79.57;96804.20;226867;1274;22543;-73
2024/02/23 02:02:49;;;;;;;8.00;5.00;;;;;;;8.13;80.03;96801.68;226826;1271;22540;-73
2024/02/23 02:07:58;;;;;;;7.90;5.20;;;;;;;8.08;79.97;96807.43;226743;1274;22547;-73
2024/02/23 02:13:05;;;;;;;7.20;5.10;;;;;;;8.06;80.06;96809.96;226588;1274;399931;-74
2024/02/23 02:18:07;;;;;;;5.80;4.30;;;;;;;8.07;80.05;96815.86;226843;1268;22550;-74
2024/02/23 02:23:10;;;;;;;6.00;4.30;;;;;;;8.04;79.76;96822.25;226771;1271;22553;-73
2024/02/23 02:28:12;;;;;;;6.00;4.40;;;;;;;8.03;79.80;96833.15;226822;1272;22786;-73
2024/02/23 02:33:14;;;;;;;7.30;4.60;;;;;;;8.02;80.58;96842.29;226680;1271;24228;-74
2024/02/23 02:38:17;;;;;;;5.10;3.70;;;;;;;8.02;80.30;96843.38;226756;1274;22649;-74
2024/02/23 02:43:19;;;;;;;5.30;3.70;;;;;;;7.99;80.32;96852.58;226753;1273;22555;-74
2024/02/23 02:48:21;;;;;;;6.20;3.80;;;;;;;7.96;80.33;96859.73;226859;1272;22981;-74
2024/02/23 02:53:23;;;;;;;3.80;3.20;;;;;;;7.91;80.62;96864.22;226793;1271;22561;-73
2024/02/23 02:58:25;;;;;;;5.10;3.60;;;;;;;7.87;80.86;96864.40;226699;1274;22527;-73
2024/02/23 03:03:27;;;;;;;4.70;3.90;;;;;;;7.81;80.88;96865.30;226761;1271;22564;-73
2024/02/23 03:08:30;;;;;;;6.10;3.80;;;;;;;7.74;80.83;96874.09;226824;1271;22538;-73
2024/02/23 03:13:32;;;;;;;6.60;4.20;;;;;;;7.69;81.54;96872.55;226843;1275;22580;-73
2024/02/23 03:18:34;;;;;;;5.20;4.40;;;;;;;7.65;81.96;96877.25;226787;1271;22684;-73
2024/02/23 03:23:36;;;;;;;6.50;4.40;;;;;;;7.61;81.78;96879.75;226753;1270;22583;-73
2024/02/23 03:28:38;;;;;;;6.70;5.20;;;;;;;7.56;81.89;96882.39;226760;1271;24302;-73
2024/02/23 03:33:40;;;;;;;9.70;7.10;;;;;;;7.52;82.37;96874.59;226733;1268;22572;-73
2024/02/23 03:38:42;;;;;;;9.90;7.30;;;;;;;7.48;82.36;96881.56;226663;1274;22535;-73
2024/02/23 03:43:44;;;;;;;9.80;8.10;;;;;;;7.42;83.09;96882.95;226743;1271;22663;-73
2024/02/23 03:48:46;;;;;;;10.50;7.60;;;;;;;7.40;82.75;96886.26;226778;1271;22543;-74
2024/02/23 03:53:48;;;;;;;9.90;7.50;;;;;;;7.36;83.09;96889.43;226775;1271;22560;-73
2024/02/23 03:58:50;;;;;;;9.60;7.90;;;;;;;7.32;83.34;96894.98;226801;1271;25255;-74
2024/02/23 04:03:52;;;;;;;11.40;8.00;;;;;;;7.30;83.47;96904.94;226766;1274;22558;-73
2024/02/23 04:08:54;;;;;;;8.80;6.90;;;;;;;7.28;83.90;96903.82;226751;1272;22549;-74
2024/02/23 04:13:56;;;;;;;6.80;5.40;;;;;;;7.26;83.76;96911.14;226726;1275;22567;-73
2024/02/23 04:18:59;;;;;;;8.30;6.70;;;;;;;7.24;84.06;96906.29;226707;1275;22561;-74
2024/02/23 04:24:01;;;;;;;7.70;5.50;;;;;;;7.22;84.33;96915.77;226749;1275;22551;-74
2024/02/23 04:29:03;;;;;;;7.90;6.00;;;;;;;7.20;84.42;96914.64;226667;1273;22539;-74
2024/02/23 04:34:05;;;;;;;9.60;6.40;;;;;;;7.17;84.04;96914.21;226734;1271;22555;-74
2024/02/23 04:39:07;;;;;;;9.30;6.50;;;;;;;7.14;84.71;96918.58;226703;1271;22570;-74
2024/02/23 04:44:09;;;;;;;6.90;5.60;;;;;;;7.11;85.17;96918.38;226717;1270;22551;-74
2024/02/23 04:49:11;;;;;;;7.30;5.30;;;;;;;7.08;85.49;96925.23;226758;1272;22488;-73
2024/02/23 04:54:14;;;;;;;6.10;5.10;;;;;;;7.05;85.77;96931.70;226664;1274;22560;-73
2024/02/23 04:59:16;;;;;;;8.00;6.50;;;;;;;7.04;85.48;96945.92;226755;1272;22539;-73
2024/02/23 05:04:18;;;;;;;9.00;6.00;;;;;;;7.02;85.62;96948.55;226757;1274;22579;-73
2024/02/23 05:09:20;;;;;;;6.60;5.40;;;;;;;7.01;85.66;96946.86;226780;1271;22561;-73
2024/02/23 05:14:22;;;;;;;7.10;5.70;;;;;;;6.98;86.11;96949.55;226775;1271;22543;-73
2024/02/23 05:19:24;;;;;;;8.70;6.60;;;;;;;6.96;86.19;96947.71;226741;1272;22569;-74
2024/02/23 05:24:26;;;;;;;10.00;8.00;;;;;;;6.95;86.31;96951.03;226717;1272;22553;-73
2024/02/23 05:29:28;;;;;;;10.80;8.60;;;;;;;6.92;86.31;96954.84;226734;1271;24269;-74
2024/02/23 05:34:30;;;;;;;10.00;8.80;;;;;;;6.91;86.59;96970.79;226686;1269;25422;-73
2024/02/23 05:39:32;;;;;;;11.40;8.90;;;;;;;6.90;86.66;96983.52;226682;1269;22547;-73
2024/02/23 05:44:34;;;;;;;9.80;8.00;;;;;;;6.90;86.69;96999.95;226644;1271;22527;-74
2024/02/23 05:49:37;;;;;;;9.70;8.20;;;;;;;6.90;86.95;96995.76;226687;1266;22586;-74
2024/02/23 05:54:38;;;;;;;9.10;8.00;;;;;;;6.89;87.36;97005.73;226698;1272;25326;-74
2024/02/23 05:59:40;;;;;;;11.80;10.60;;;;;;;6.89;86.94;97004.52;226703;1273;23024;-74
2024/02/23 06:04:43;;;;;;;15.90;12.30;;;;;;;6.88;87.12;97013.73;226696;1274;22562;-73
2024/02/23 06:09:44;;;;;;;13.00;11.30;;;;;;;6.88;87.07;97026.52;226687;1273;22650;-73
2024/02/23 06:14:46;;;;;;;13.70;10.50;;;;;;;6.87;87.57;97045.39;226742;1271;22841;-73
2024/02/23 06:19:49;;;;;;;11.10;9.40;;;;;;;6.89;88.15;97069.75;226723;1271;22553;-73
2024/02/23 06:24:51;;;;;;;14.50;8.80;;;;;;;6.93;88.10;97081.94;226701;1271;22590;-74
2024/02/23 06:29:53;;;;;;;12.60;9.40;;;;;;;7.00;87.66;97098.39;226703;1272;22550;-74
2024/02/23 06:34:55;;;;;;;11.70;8.60;;;;;;;7.06;88.03;97106.65;226723;1274;22570;-74
2024/02/23 06:40:01;;;;;;;12.90;8.70;;;;;;;7.06;87.51;97101.20;226782;1271;22677;-73
2024/02/23 06:45:03;;;;;;;13.60;7.90;;;;;;;7.07;87.49;97111.45;226809;1275;22682;-75
2024/02/23 06:50:06;;;;;;;10.90;8.10;;;;;;;7.07;87.76;97108.75;226772;1271;22555;-75
2024/02/23 06:55:10;;;;;;;10.90;8.60;;;;;;;7.08;88.04;97106.69;226554;1271;22752;-75
2024/02/23 07:00:12;;;;;;;13.50;11.00;;;;;;;7.10;88.37;97099.50;226527;1271;22549;-74
2024/02/23 07:05:14;;;;;;;12.00;8.30;;;;;;;7.15;88.46;97103.54;226536;1263;22554;-73
2024/02/23 07:10:17;;;;;;;10.70;8.70;;;;;;;7.18;88.40;97110.48;226590;1269;22659;-73
2024/02/23 07:15:20;;;;;;;11.30;8.70;;;;;;;7.21;88.65;97110.04;226579;1268;25338;-73
2024/02/23 07:20:22;;;;;;;11.00;9.30;;;;;;;7.26;88.90;97109.48;226568;1269;25311;-73
2024/02/23 07:25:24;;;;;;;9.50;7.80;;;;;;;7.31;88.68;97114.27;226539;1268;22555;-72
2024/02/23 07:30:26;;;;;;;10.50;8.00;;;;;;;7.36;88.79;97122.63;226526;1272;22618;-73
2024/02/23 07:35:28;;;;;;;11.10;7.40;;;;;;;7.43;88.71;97129.27;226342;1274;22576;-74
2024/02/23 07:40:31;;;;;;;9.40;7.50;;;;;;;7.50;88.46;97130.85;226295;1273;22535;-74
2024/02/23 07:45:35;;;;;;;7.50;5.90;;;;;;;7.56;88.81;97135.40;226201;1275;23412;-73
2024/02/23 07:50:37;;;;;;;9.50;6.40;;;;;;;7.62;88.93;97142.43;226046;1271;22559;-73
2024/02/23 07:55:39;;;;;;;113.60;83.90;;;;;;;7.68;88.62;97141.21;226280;1268;24961;-74
2024/02/23 08:00:41;;;;;;;9.00;6.20;;;;;;;7.74;88.59;97145.48;226387;1269;22638;-74
2024/02/23 08:05:43;;;;;;;8.20;5.80;;;;;;;7.79;88.41;97144.27;226629;1272;25253;-75
2024/02/23 08:10:45;;;;;;;8.70;5.90;;;;;;;7.86;88.83;97148.67;226669;1270;22543;-73
2024/02/23 08:15:46;;;;;;;7.80;5.40;;;;;;;7.91;89.07;97150.91;226723;1270;22554;-72
2024/02/23 08:20:49;;;;;;;9.10;5.80;;;;;;;7.96;89.12;97153.87;226718;1272;22553;-73
2024/02/23 08:25:53;;;;;;;6.90;4.90;;;;;;;8.01;89.13;97157.23;226723;1272;22548;-73
2024/02/23 08:30:55;;;;;;;7.30;5.30;;;;;;;8.04;88.52;97155.68;226592;1272;25568;-74
2024/02/23 08:35:57;;;;;;;6.30;5.30;;;;;;;8.06;88.52;97157.31;226620;1270;22544;-73
2024/02/23 08:40:59;;;;;;;5.70;4.40;;;;;;;8.07;88.55;97160.10;226613;1266;24275;-74
2024/02/23 08:46:01;;;;;;;5.60;4.30;;;;;;;8.09;88.63;97168.04;226600;1270;22530;-74
2024/02/23 08:51:09;;;;;;;5.20;3.50;;;;;;;8.14;88.72;97165.38;226551;1268;22547;-74
2024/02/23 08:56:12;;;;;;;6.40;3.90;;;;;;;8.18;88.72;97170.48;226778;1267;22539;-73
2024/02/23 09:01:14;;;;;;;5.00;3.70;;;;;;;8.24;88.69;97173.45;226699;1271;24301;-74
2024/02/23 09:06:16;;;;;;;6.10;4.30;;;;;;;8.38;88.94;97169.45;226367;1274;22706;-74
2024/02/23 09:11:18;;;;;;;5.00;4.00;;;;;;;8.53;88.68;97177.73;226352;1274;22554;-74
2024/02/23 09:16:23;;;;;;;5.60;4.40;;;;;;;8.69;88.42;97188.69;226600;1270;26075;-80
2024/02/23 09:21:25;;;;;;;6.50;5.20;;;;;;;8.95;88.72;97195.07;226551;1271;22562;-74
2024/02/23 09:26:27;;;;;;;6.60;4.90;;;;;;;9.29;88.47;97199.57;226709;1272;22601;-74
2024/02/23 09:31:29;;;;;;;5.70;4.40;;;;;;;9.64;87.78;97203.77;226804;1256;22644;-74
2024/02/23 09:36:31;;;;;;;6.50;5.10;;;;;;;9.90;87.41;97201.99;226802;1263;24249;-73
2024/02/23 09:41:34;;;;;;;5.80;5.10;;;;;;;10.12;87.07;97212.46;226784;1274;23147;-74
2024/02/23 09:46:37;;;;;;;7.80;5.30;;;;;;;10.22;86.71;97222.02;226805;1272;22559;-74
2024/02/23 09:51:41;;;;;;;6.60;5.60;;;;;;;10.22;86.04;97228.92;226764;1254;22968;-74
2024/02/23 09:56:43;;;;;;;6.10;4.90;;;;;;;10.14;85.78;97225.34;226791;1267;22510;-73
2024/02/23 10:01:45;;;;;;;6.70;4.80;;;;;;;10.11;85.69;97227.41;226632;1252;22570;-73
2024/02/23 10:06:48;;;;;;;7.00;4.70;;;;;;;10.07;85.24;97233.80;226656;1275;22573;-73
2024/02/23 10:11:53;;;;;;;6.80;4.90;;;;;;;10.04;85.51;97224.44;226415;1268;22589;-74
2024/02/23 10:16:56;;;;;;;7.80;5.90;;;;;;;10.09;85.59;97220.05;226507;1275;22551;-75
2024/02/23 10:21:58;;;;;;;6.50;4.60;;;;;;;10.19;85.70;97221.39;226390;1270;22656;-73
2024/02/23 10:27:02;;;;;;;6.10;4.60;;;;;;;10.27;85.42;97229.66;226658;1272;22578;-74
2024/02/23 10:32:06;;;;;;;5.30;4.30;;;;;;;10.24;85.61;97222.16;226708;1263;22549;-73
2024/02/23 10:37:09;;;;;;;6.50;4.80;;;;;;;10.23;85.24;97236.82;226675;1275;22551;-74
2024/02/23 10:42:13;;;;;;;5.50;4.30;;;;;;;10.12;84.97;97253.59;226793;1275;22545;-74
2024/02/23 10:47:15;;;;;;;7.50;5.20;;;;;;;9.99;85.14;97257.31;226697;1260;22565;-73
2024/02/23 10:52:18;;;;;;;7.50;5.30;;;;;;;9.89;85.23;97265.40;226362;1255;22713;-73
2024/02/23 10:57:21;;;;;;;6.00;5.30;;;;;;;9.82;85.17;97262.55;226248;1273;24302;-73
2024/02/23 11:02:26;;;;;;;6.70;5.10;;;;;;;9.75;85.35;97259.55;226168;1268;22569;-73
2024/02/23 11:07:30;;;;;;;7.10;5.90;;;;;;;9.73;85.55;97256.98;226586;1275;22543;-73
2024/02/23 11:12:34;;;;;;;8.20;6.60;;;;;;;9.77;85.45;97265.23;226823;1264;23033;-76
2024/02/23 11:17:39;;;;;;;7.30;5.60;;;;;;;9.78;85.64;97291.51;226845;1272;22551;-75
2024/02/23 11:22:41;;;;;;;7.00;5.00;;;;;;;9.76;85.69;97295.25;226679;1267;22573;-71
2024/02/23 11:27:43;;;;;;;6.10;5.10;;;;;;;9.78;85.59;97298.38;226727;1267;22559;-75
2024/02/23 11:32:47;;;;;;;6.50;4.90;;;;;;;9.75;85.53;97301.72;226481;1273;22559;-75
2024/02/23 11:38:02;;;;;;;7.10;5.10;;;;;;;9.77;85.72;97297.89;226858;1272;22563;-74
2024/02/23 11:43:04;;;;;;;6.30;4.30;;;;;;;9.87;85.75;97310.35;226549;1267;23349;-74
2024/02/23 11:48:07;;;;;;;7.60;6.10;;;;;;;9.93;85.79;97315.80;226637;1267;22554;-74
2024/02/23 11:53:09;;;;;;;8.60;6.40;;;;;;;10.00;85.84;97326.60;226844;1273;24261;-73
2024/02/23 11:58:11;;;;;;;9.60;6.40;;;;;;;10.09;85.67;97331.98;226830;1273;22537;-74
2024/02/23 12:03:20;;;;;;;7.60;6.00;;;;;;;10.05;85.40;97344.16;226682;1263;22544;-73
2024/02/23 12:08:23;;;;;;;8.10;5.70;;;;;;;10.04;85.62;97326.61;226369;1267;24768;-75
2024/02/23 12:13:26;;;;;;;6.60;5.00;;;;;;;10.03;85.67;97312.08;226397;1254;22647;-75
2024/02/23 12:18:31;;;;;;;7.10;5.20;;;;;;;10.03;85.40;97313.45;226245;1253;22546;-76
2024/02/23 12:23:41;;;;;;;9.10;4.70;;;;;;;10.07;85.48;97319.95;226286;1252;22583;-73
2024/02/23 12:28:44;;;;;;;37.50;26.40;;;;;;;10.08;85.33;97317.98;226051;1267;22550;-74
2024/02/23 12:33:48;;;;;;;6.40;4.80;;;;;;;10.14;85.26;97327.27;226135;1261;22563;-75
2024/02/23 12:38:50;;;;;;;8.50;5.90;;;;;;;10.21;85.20;97319.73;226437;1267;22551;-75
2024/02/23 12:43:53;;;;;;;7.20;4.90;;;;;;;10.29;85.20;97318.16;226617;1270;22572;-75
2024/02/23 12:48:55;;;;;;;6.50;4.90;;;;;;;10.33;84.95;97323.62;226607;1274;22602;-75
2024/02/23 12:53:57;;;;;;;7.60;5.50;;;;;;;10.32;84.82;97333.17;226725;1256;22590;-75
2024/02/23 12:59:00;;;;;;;8.70;4.90;;;;;;;10.31;85.13;97339.64;226804;1267;22581;-75
2024/02/23 13:04:02;;;;;;;5.70;4.50;;;;;;;10.33;84.74;97336.81;226719;1273;24224;-74
2024/02/23 13:09:04;;;;;;;5.60;4.20;;;;;;;10.34;84.83;97345.45;226853;1271;25385;-74
2024/02/23 13:14:09;;;;;;;4.10;3.50;;;;;;;10.33;84.59;97342.70;226757;1267;25934;-74
2024/02/23 13:19:11;;;;;;;5.60;4.00;;;;;;;10.30;84.59;97330.63;226672;1257;22559;-74
2024/02/23 13:24:13;;;;;;;37.80;33.00;;;;;;;10.25;84.46;97336.31;226836;1269;22624;-74
2024/02/23 13:29:16;;;;;;;6.50;4.30;;;;;;;10.26;84.47;97347.84;226735;1267;22576;-74
2024/02/23 13:34:21;;;;;;;6.80;3.90;;;;;;;10.27;84.45;97360.10;226598;1254;22542;-74
2024/02/23 13:39:23;;;;;;;5.90;4.00;;;;;;;10.19;84.22;97372.04;226582;1260;22560;-75
2024/02/23 13:44:25;;;;;;;6.90;4.30;;;;;;;10.09;84.26;97379.00;226674;1268;22573;-75
2024/02/23 13:49:27;;;;;;;6.30;4.50;;;;;;;9.97;84.07;97381.48;226565;1256;22570;-75
2024/02/23 13:54:29;;;;;;;8.40;4.20;;;;;;;9.85;84.43;97382.19;226559;1260;22571;-75
2024/02/23 13:59:31;;;;;;;7.30;4.70;;;;;;;9.75;84.61;97381.73;226720;1272;22548;-75
2024/02/23 14:04:33;;;;;;;10.50;8.00;;;;;;;9.63;84.86;97373.39;226447;1267;22847;-73
2024/02/23 14:09:36;;;;;;;5.90;5.20;;;;;;;9.53;84.91;97375.54;226371;1264;208482;-74
2024/02/23 14:14:37;;;;;;;7.40;4.40;;;;;;;9.46;85.00;97382.71;226583;1263;22572;-74
2024/02/23 14:19:39;;;;;;;8.10;5.60;;;;;;;9.36;84.84;97385.70;226663;1271;22555;-73
2024/02/23 14:24:41;;;;;;;9.40;7.60;;;;;;;9.28;85.21;97391.04;226853;1271;25225;-73
2024/02/23 14:29:43;;;;;;;9.40;8.50;;;;;;;9.29;85.70;97389.45;226708;1263;22554;-75
2024/02/23 14:34:46;;;;;;;11.90;9.60;;;;;;;9.32;86.07;97375.84;226546;1265;22561;-73
2024/02/23 14:39:49;;;;;;;13.50;11.10;;;;;;;9.39;86.40;97374.52;226520;1271;24201;-75
2024/02/23 14:44:51;;;;;;;17.50;11.70;;;;;;;9.50;86.70;97371.23;226446;1253;22546;-74
2024/02/23 14:49:53;;;;;;;12.80;10.70;;;;;;;9.56;86.53;97373.70;226655;1260;22546;-76
2024/02/23 14:54:55;;;;;;;13.80;10.80;;;;;;;9.58;86.44;97374.74;226600;1273;22550;-76
2024/02/23 14:59:57;;;;;;;13.30;10.70;;;;;;;9.59;86.33;97378.83;226521;1271;22554;-76
2024/02/23 15:04:59;;;;;;;14.50;10.70;;;;;;;9.57;86.30;97382.94;226423;1273;22555;-75
2024/02/23 15:10:08;;;;;;;12.20;10.10;;;;;;;9.52;86.21;97380.05;226429;1271;22538;-75
2024/02/23 15:15:10;;;;;;;12.20;10.10;;;;;;;9.45;85.99;97376.84;226268;1268;22578;-76
2024/02/23 15:20:13;;;;;;;13.60;11.20;;;;;;;9.36;86.01;97377.02;226349;1268;22562;-76
2024/02/23 15:25:15;;;;;;;14.70;11.20;;;;;;;9.33;86.13;97380.10;226506;1273;23448;-74
2024/02/23 15:30:18;;;;;;;12.80;10.90;;;;;;;9.30;86.29;97375.98;226503;1273;22576;-76
2024/02/23 15:35:20;;;;;;;13.30;10.70;;;;;;;9.27;86.01;97379.45;226519;1274;23651;-76
2024/02/23 15:40:22;;;;;;;13.20;10.50;;;;;;;9.17;86.04;97379.63;226470;1272;22546;-76
2024/02/23 15:45:25;;;;;;;12.40;9.90;;;;;;;9.10;86.23;97380.98;226513;1268;22540;-76
2024/02/23 15:50:28;;;;;;;25.30;17.80;;;;;;;9.05;86.19;97387.73;226479;1276;22555;-77
2024/02/23 15:55:50;;;;;;;32.10;23.00;;;;;;;8.97;86.17;97396.95;226479;1273;22553;-77
2024/02/23 16:00:53;;;;;;;25.60;19.80;;;;;;;8.94;86.67;97397.64;226545;1271;22560;-76
2024/02/23 16:05:56;;;;;;;17.00;13.20;;;;;;;8.93;86.51;97401.55;226563;1271;22550;-75
2024/02/23 16:10:58;;;;;;;15.20;11.40;;;;;;;8.89;86.70;97404.70;226521;1273;22582;-76
2024/02/23 16:16:00;;;;;;;18.90;14.50;;;;;;;8.79;86.19;97408.11;226520;1276;22550;-75
2024/02/23 16:21:02;;;;;;;17.10;12.90;;;;;;;8.67;86.49;97411.39;226567;1272;24231;-76
2024/02/23 16:26:06;;;;;;;11.20;8.90;;;;;;;8.58;86.45;97418.66;226539;1271;22562;-75
2024/02/23 16:31:08;;;;;;;10.70;9.50;;;;;;;8.50;86.48;97416.52;226599;1269;22554;-76
2024/02/23 16:36:11;;;;;;;11.80;10.10;;;;;;;8.49;86.89;97402.23;226522;1273;22549;-77
2024/02/23 16:41:13;;;;;;;15.70;12.40;;;;;;;8.48;86.86;97390.29;226588;1275;22549;-76
2024/02/23 16:46:15;;;;;;;16.80;12.90;;;;;;;8.45;86.86;97392.13;226582;1268;22554;-76
2024/02/23 16:51:17;;;;;;;17.80;14.40;;;;;;;8.41;86.74;97393.25;226536;1264;22556;-76
2024/02/23 16:56:18;;;;;;;18.80;15.60;;;;;;;8.38;87.09;97393.78;226499;1273;22547;-76
2024/02/23 17:01:21;;;;;;;32.20;24.60;;;;;;;8.37;87.32;97398.84;226567;1272;22543;-76
2024/02/23 17:06:23;;;;;;;34.80;27.60;;;;;;;8.37;87.12;97390.66;226603;1272;24239;-76
2024/02/23 17:11:25;;;;;;;34.90;25.70;;;;;;;8.36;87.49;97396.29;226623;1273;22582;-76
2024/02/23 17:16:28;;;;;;;32.50;23.30;;;;;;;8.35;87.77;97404.20;226633;1270;22564;-76
2024/02/23 17:21:30;;;;;;;39.50;26.20;;;;;;;8.33;87.55;97412.97;226568;1273;22653;-76
2024/02/23 17:26:32;;;;;;;42.30;29.30;;;;;;;8.33;87.54;97409.45;226585;1271;22543;-76
2024/02/23 17:31:35;;;;;;;43.30;29.70;;;;;;;8.34;87.96;97405.92;226535;1270;24412;-76
2024/02/23 17:36:42;;;;;;;44.40;31.40;;;;;;;8.33;87.68;97405.00;226642;1268;24990;-75
2024/02/23 17:41:44;;;;;;;54.10;36.80;;;;;;;8.30;88.02;97413.81;226542;1273;22549;-76
2024/02/23 17:46:47;;;;;;;53.00;33.60;;;;;;;8.29;87.72;97406.51;226560;1272;24279;-75
2024/02/23 17:51:50;;;;;;;43.70;31.30;;;;;;;8.24;87.86;97408.33;226556;1273;22580;-76
2024/02/23 17:56:52;;;;;;;39.10;26.40;;;;;;;8.19;87.94;97401.02;226345;1276;22550;-76
2024/02/23 18:01:54;;;;;;;32.60;25.80;;;;;;;8.11;87.86;97396.42;226574;1268;22550;-76
2024/02/23 18:06:57;;;;;;;36.80;26.00;;;;;;;8.07;87.98;97389.23;226468;1274;22551;-75
2024/02/23 18:11:58;;;;;;;40.50;27.50;;;;;;;8.03;88.42;97388.86;226567;1268;22543;-75
2024/02/23 18:17:03;;;;;;;41.50;28.90;;;;;;;8.00;88.25;97386.51;226597;1274;22555;-76
2024/02/23 18:22:05;;;;;;;43.70;29.60;;;;;;;8.00;88.47;97388.73;226561;1273;25355;-76
2024/02/23 18:27:07;;;;;;;43.40;32.30;;;;;;;8.00;88.40;97381.45;226590;1273;22541;-75
2024/02/23 18:32:11;;;;;;;52.70;36.90;;;;;;;7.99;88.39;97376.06;226512;1273;22566;-76
2024/02/23 18:37:13;;;;;;;51.60;36.40;;;;;;;7.97;88.70;97376.23;226586;1268;22530;-76
2024/02/23 18:42:17;;;;;;;47.20;32.30;;;;;;;7.93;88.76;97378.42;226563;1276;22557;-77
2024/02/23 18:47:19;;;;;;;42.10;30.20;;;;;;;7.91;88.31;97383.27;226612;1273;22590;-76
2024/02/23 18:52:21;;;;;;;35.90;25.90;;;;;;;7.88;88.52;97378.21;226600;1273;22550;-76
2024/02/23 18:57:23;;;;;;;29.30;22.60;;;;;;;7.86;88.87;97378.04;226514;1271;22549;-75
2024/02/23 19:02:25;;;;;;;28.30;21.30;;;;;;;7.85;89.01;97371.53;226571;1271;22550;-76
2024/02/23 19:07:27;;;;;;;31.20;21.40;;;;;;;7.84;88.68;97365.26;226533;1271;22593;-76
2024/02/23 19:12:29;;;;;;;27.50;19.30;;;;;;;7.83;88.89;97363.48;226595;1272;22555;-76
2024/02/23 19:17:32;;;;;;;24.30;17.40;;;;;;;7.82;88.67;97365.14;226580;1273;22553;-76
2024/02/23 19:22:38;;;;;;;25.40;19.00;;;;;;;7.80;88.75;97359.66;226520;1276;22562;-75
2024/02/23 19:27:40;;;;;;;26.80;19.70;;;;;;;7.78;88.88;97361.58;226572;1270;22911;-76
2024/02/23 19:32:42;;;;;;;27.30;19.50;;;;;;;7.75;88.88;97360.52;226629;1271;22547;-76
2024/02/23 19:37:44;;;;;;;27.20;21.00;;;;;;;7.73;88.75;97355.88;226568;1273;22541;-76
2024/02/23 19:42:50;;;;;;;29.10;22.90;;;;;;;7.72;88.69;97344.67;226619;1271;22549;-75
2024/02/23 19:47:53;;;;;;;30.30;24.20;;;;;;;7.71;88.86;97343.98;226630;1269;22561;-77
2024/02/23 19:52:55;;;;;;;34.60;26.80;;;;;;;7.68;88.99;97341.50;226571;1271;22545;-75
2024/02/23 19:57:57;;;;;;;36.00;27.90;;;;;;;7.66;89.19;97335.15;226617;1271;22569;-76
2024/02/23 20:02:59;;;;;;;36.00;28.40;;;;;;;7.63;89.29;97330.26;226571;1273;22567;-75
2024/02/23 20:08:01;;;;;;;36.10;28.60;;;;;;;7.61;89.06;97336.41;226623;1269;22558;-76
2024/02/23 20:13:03;;;;;;;38.70;29.40;;;;;;;7.59;89.20;97325.13;226640;1274;22778;-75
2024/02/23 20:18:06;;;;;;;34.10;26.00;;;;;;;7.53;89.22;97302.38;226558;1273;22542;-76
2024/02/23 20:23:08;;;;;;;34.00;26.60;;;;;;;7.46;89.45;97291.06;226564;1273;22909;-76
2024/02/23 20:28:11;;;;;;;32.00;24.70;;;;;;;7.39;89.36;97296.88;226629;1274;22546;-76
2024/02/23 20:33:13;;;;;;;33.10;24.50;;;;;;;7.35;89.41;97297.06;226540;1274;22547;-76
2024/02/23 20:38:16;;;;;;;33.40;25.10;;;;;;;7.31;89.40;97292.34;226636;1273;22544;-76
2024/02/23 20:43:17;;;;;;;35.50;25.90;;;;;;;7.29;89.35;97290.92;226501;1274;22542;-76
2024/02/23 20:48:20;;;;;;;38.40;27.80;;;;;;;7.28;89.71;97283.16;226553;1276;24583;-75
2024/02/23 20:53:22;;;;;;;35.70;27.20;;;;;;;7.26;89.79;97277.98;226478;1272;22573;-76
2024/02/23 20:58:24;;;;;;;38.30;26.40;;;;;;;7.27;89.86;97282.65;226674;1273;22754;-76
2024/02/23 21:03:27;;;;;;;37.40;28.60;;;;;;;7.29;90.04;97287.40;226564;1276;22550;-76
2024/02/23 21:08:29;;;;;;;37.10;25.40;;;;;;;7.32;90.23;97286.27;226563;1271;22549;-76
2024/02/23 21:13:31;;;;;;;37.40;27.90;;;;;;;7.35;90.51;97279.77;226636;1268;22601;-76
2024/02/23 21:18:34;;;;;;;38.80;26.90;;;;;;;7.37;90.22;97276.74;226664;1271;22553;-76
2024/02/23 21:23:36;;;;;;;37.00;26.50;;;;;;;7.38;90.36;97267.29;226645;1257;24264;-76
2024/02/23 21:28:38;;;;;;;37.30;26.20;;;;;;;7.38;90.16;97267.60;226540;1252;22542;-76
2024/02/23 21:33:40;;;;;;;32.10;23.90;;;;;;;7.39;90.36;97269.42;226623;1274;22549;-77
2024/02/23 21:38:43;;;;;;;31.60;24.00;;;;;;;7.38;89.77;97261.83;226618;1273;22565;-76
2024/02/23 21:43:45;;;;;;;29.50;23.00;;;;;;;7.38;90.01;97252.73;226608;1275;22578;-76
2024/02/23 21:48:48;;;;;;;26.10;21.40;;;;;;;7.37;89.79;97243.80;226669;1256;22549;-76
2024/02/23 21:53:50;;;;;;;30.10;22.30;;;;;;;7.33;90.00;97237.41;226556;1273;23048;-76
2024/02/23 21:58:52;;;;;;;30.10;21.90;;;;;;;7.31;90.15;97237.53;226463;1274;23093;-77
2024/02/23 22:03:54;;;;;;;28.50;20.60;;;;;;;7.31;90.31;97229.36;226595;1274;22553;-76
2024/02/23 22:09:00;;;;;;;30.10;20.70;;;;;;;7.30;89.96;97219.79;226597;1276;22546;-76
2024/02/23 22:14:02;;;;;;;27.10;18.70;;;;;;;7.29;90.01;97214.17;226546;1273;22555;-76
2024/02/23 22:19:04;;;;;;;25.70;19.10;;;;;;;7.26;90.11;97208.80;226582;1271;22594;-76
2024/02/23 22:24:07;;;;;;;23.80;17.70;;;;;;;7.26;89.82;97210.52;226606;1271;24344;-77
2024/02/23 22:29:12;;;;;;;27.30;19.00;;;;;;;7.27;89.86;97209.90;226688;1276;22542;-75
2024/02/23 22:34:14;;;;;;;25.70;19.80;;;;;;;7.27;90.05;97210.02;226568;1271;25572;-76
2024/02/23 22:39:17;;;;;;;26.40;19.10;;;;;;;7.28;89.89;97207.27;226622;1271;22595;-76
2024/02/23 22:44:19;;;;;;;25.90;19.40;;;;;;;7.31;90.01;97207.42;226556;1273;22554;-76
2024/02/23 22:49:21;;;;;;;27.50;18.60;;;;;;;7.36;89.59;97205.52;226641;1276;22682;-76
2024/02/23 22:54:23;;;;;;;25.30;18.10;;;;;;;7.40;89.84;97209.11;226624;1271;22546;-76
2024/02/23 22:59:25;;;;;;;30.00;19.80;;;;;;;7.45;89.79;97203.79;226655;1271;22599;-75
2024/02/23 23:04:27;;;;;;;26.50;17.90;;;;;;;7.48;89.66;97202.17;226606;1274;22543;-76
2024/02/23 23:09:31;;;;;;;26.90;17.90;;;;;;;7.50;89.33;97197.92;226589;1270;25422;-75
2024/02/23 23:14:33;;;;;;;24.10;16.80;;;;;;;7.50;89.54;97195.78;226570;1274;25334;-76
2024/02/23 23:19:35;;;;;;;26.50;18.00;;;;;;;7.49;89.13;97193.80;226624;1274;22546;-76
2024/02/23 23:24:37;;;;;;;24.50;16.70;;;;;;;7.48;89.29;97191.61;226534;1273;22640;-76